地図

経路データ

SID SEASON NUMBER BASIN SUBBASIN NAME ISO_TIME NATURE LAT LON WMO_WIND WMO_PRES WMO_AGENCY TRACK_TYPE DIST2LAND LANDFALL IFLAG USA_AGENCY USA_ATCF_ID USA_LAT USA_LON USA_RECORD USA_STATUS USA_WIND USA_PRES USA_SSHS USA_R34_NE USA_R34_SE USA_R34_SW USA_R34_NW USA_R50_NE USA_R50_SE USA_R50_SW USA_R50_NW USA_R64_NE USA_R64_SE USA_R64_SW USA_R64_NW USA_POCI USA_ROCI USA_RMW USA_EYE TOKYO_LAT TOKYO_LON TOKYO_GRADE TOKYO_WIND TOKYO_PRES TOKYO_R50_DIR TOKYO_R50_LONG TOKYO_R50_SHORT TOKYO_R30_DIR TOKYO_R30_LONG TOKYO_R30_SHORT TOKYO_LAND CMA_LAT CMA_LON CMA_CAT CMA_WIND CMA_PRES HKO_LAT HKO_LON HKO_CAT HKO_WIND HKO_PRES NEWDELHI_LAT NEWDELHI_LON NEWDELHI_GRADE NEWDELHI_WIND NEWDELHI_PRES NEWDELHI_CI NEWDELHI_DP NEWDELHI_POCI REUNION_LAT REUNION_LON REUNION_TYPE REUNION_WIND REUNION_PRES REUNION_TNUM REUNION_CI REUNION_RMW REUNION_R34_NE REUNION_R34_SE REUNION_R34_SW REUNION_R34_NW REUNION_R50_NE REUNION_R50_SE REUNION_R50_SW REUNION_R50_NW REUNION_R64_NE REUNION_R64_SE REUNION_R64_SW REUNION_R64_NW BOM_LAT BOM_LON BOM_TYPE BOM_WIND BOM_PRES BOM_TNUM BOM_CI BOM_RMW BOM_R34_NE BOM_R34_SE BOM_R34_SW BOM_R34_NW BOM_R50_NE BOM_R50_SE BOM_R50_SW BOM_R50_NW BOM_R64_NE BOM_R64_SE BOM_R64_SW BOM_R64_NW BOM_ROCI BOM_POCI BOM_EYE BOM_POS_METHOD BOM_PRES_METHOD NADI_LAT NADI_LON NADI_CAT NADI_WIND NADI_PRES WELLINGTON_LAT WELLINGTON_LON WELLINGTON_WIND WELLINGTON_PRES DS824_LAT DS824_LON DS824_STAGE DS824_WIND DS824_PRES TD9636_LAT TD9636_LON TD9636_STAGE TD9636_WIND TD9636_PRES TD9635_LAT TD9635_LON TD9635_WIND TD9635_PRES TD9635_ROCI NEUMANN_LAT NEUMANN_LON NEUMANN_CLASS NEUMANN_WIND NEUMANN_PRES MLC_LAT MLC_LON MLC_CLASS MLC_WIND MLC_PRES USA_GUST BOM_GUST BOM_GUST_PER REUNION_GUST REUNION_GUST_PER USA_SEAHGT USA_SEARAD_NE USA_SEARAD_SE USA_SEARAD_SW USA_SEARAD_NW STORM_SPEED STORM_DIR
1866080S14080 1866 5 SI MM NOT_NAMED 1866-03-21 06:00:00 NR -13.9000 80.4000 main 2218 2218 _____O________ -1 -13.9000 80.4000 99 9.90000 2 243
1866080S14080 1866 5 SI MM NOT_NAMED 1866-03-21 09:00:00 NR -13.9510 80.3040 main 2229 2229 _____P________ -1 -13.9510 80.3040 99 2 242
1866080S14080 1866 5 SI MM NOT_NAMED 1866-03-21 12:00:00 NR -14.0032 80.2064 main 2229 2229 _____P________ -1 -14.0032 80.2064 99 2 241
1866080S14080 1866 5 SI MM NOT_NAMED 1866-03-21 15:00:00 NR -14.0575 80.1057 main 2241 2241 _____P________ -1 -14.0575 80.1057 99 2 241
1866080S14080 1866 5 SI MM NOT_NAMED 1866-03-21 18:00:00 NR -14.1150 80.0002 main 2241 2241 _____P________ -1 -14.1150 80.0002 99 2 240
1866080S14080 1866 5 SI MM NOT_NAMED 1866-03-21 21:00:00 NR -14.1770 79.8885 main 2253 2253 _____P________ -1 -14.1770 79.8885 99 3 240
1866080S14080 1866 5 SI MM NOT_NAMED 1866-03-22 00:00:00 NR -14.2444 79.7689 main 2253 2253 _____P________ -1 -14.2444 79.7689 99 3 240
1866080S14080 1866 5 SI MM NOT_NAMED 1866-03-22 03:00:00 NR -14.3184 79.6400 main 2265 2265 _____P________ -1 -14.3184 79.6400 99 3 239
1866080S14080 1866 5 SI MM NOT_NAMED 1866-03-22 06:00:00 NR -14.4000 79.5000 reunion main 2277 2277 _____O________ -1 -14.4000 79.5000 99 9.90000 3 239
1866080S14080 1866 5 SI MM NOT_NAMED 1866-03-22 09:00:00 NR -14.4902 79.3479 main 2289 2289 _____P________ -1 -14.4902 79.3479 99 4 238
1866080S14080 1866 5 SI MM NOT_NAMED 1866-03-22 12:00:00 NR -14.5896 79.1840 main 2301 2301 _____P________ -1 -14.5896 79.1840 99 4 238
1866080S14080 1866 5 SI MM NOT_NAMED 1866-03-22 15:00:00 NR -14.6985 79.0092 main 2314 2308 _____P________ -1 -14.6985 79.0092 99 4 237
1866080S14080 1866 5 SI MM NOT_NAMED 1866-03-22 18:00:00 NR -14.8173 78.8243 main 2308 2284 _____P________ -1 -14.8173 78.8243 99 4 236
1866080S14080 1866 5 SI MM NOT_NAMED 1866-03-22 21:00:00 NR -14.9465 78.6301 main 2284 2256 _____P________ -1 -14.9465 78.6301 99 5 235
1866080S14080 1866 5 SI MM NOT_NAMED 1866-03-23 00:00:00 NR -15.0864 78.4275 main 2256 2232 _____P________ -1 -15.0864 78.4275 99 5 234
1866080S14080 1866 5 SI MM NOT_NAMED 1866-03-23 03:00:00 NR -15.2374 78.2172 main 2232 2205 _____P________ -1 -15.2374 78.2172 99 5 233
1866080S14080 1866 5 SI MM NOT_NAMED 1866-03-23 06:00:00 NR -15.4000 78.0000 reunion main 2205 2178 _____O________ -1 -15.4000 78.0000 99 9.90000 5 231
1866080S14080 1866 5 SI MM NOT_NAMED 1866-03-23 09:00:00 NR -15.5742 77.7767 main 2178 2154 _____P________ -1 -15.5742 77.7767 99 6 230
1866080S14080 1866 5 SI MM NOT_NAMED 1866-03-23 12:00:00 NR -15.7589 77.5480 main 2141 2117 _____P________ -1 -15.7589 77.5480 99 6 230
1866080S14080 1866 5 SI MM NOT_NAMED 1866-03-23 15:00:00 NR -15.9525 77.3146 main 2114 2090 _____P________ -1 -15.9525 77.3146 99 6 229
1866080S14080 1866 5 SI MM NOT_NAMED 1866-03-23 18:00:00 NR -16.1534 77.0771 main 2087 2053 _____P________ -1 -16.1534 77.0771 99 6 228
1866080S14080 1866 5 SI MM NOT_NAMED 1866-03-23 21:00:00 NR -16.3602 76.8361 main 2051 2024 _____P________ -1 -16.3602 76.8361 99 6 228
1866080S14080 1866 5 SI MM NOT_NAMED 1866-03-24 00:00:00 NR -16.5712 76.5925 main 2024 1998 _____P________ -1 -16.5712 76.5925 99 6 228
1866080S14080 1866 5 SI MM NOT_NAMED 1866-03-24 03:00:00 NR -16.7850 76.3469 main 1988 1962 _____P________ -1 -16.7850 76.3469 99 6 228
1866080S14080 1866 5 SI MM NOT_NAMED 1866-03-24 06:00:00 NR -17.0000 76.1000 reunion main 1962 _____O________ -1 -17.0000 76.1000 99 9.90000 6 228

IBTrACS Databaseについて

本データベースは、米国NOAAが公開する1842年以降の世界の熱帯低気圧のベストトラックデータアーカイブInternational Best Track Archive for Climate Stewardship (IBTrACS)を、ウェブで閲覧しやすい形式に変換したものです。

最終更新日:2021-10-21